Time;durP1;ratioP1;P1;durP2;ratioP2;P2;SDS_P1;SDS_P2;PMS_P1;PMS_P2;Temp;Humidity;BMP_temperature;BMP_pressure;BME280_temperature;BME280_humidity;BME280_pressure;Samples;Min_cycle;Max_cycle;Signal;HPM_P1;HPM_P2
2023/04/01 00:00:48;;;;;;;2.92;1.20;;;;;;;15.06;65.76;99343.44;5054343;27;99292;-72
2023/04/01 00:03:15;;;;;;;2.55;1.20;;;;;;;14.90;66.11;99349.06;5057014;27;96604;-72
2023/04/01 00:05:41;;;;;;;3.30;1.95;;;;;;;15.14;65.18;99338.38;5054671;27;98937;-72
2023/04/01 00:08:09;;;;;;;3.63;1.20;;;;;;;15.13;64.80;99345.53;5065972;27;100591;-71
2023/04/01 00:10:35;;;;;;;2.33;1.50;;;;;;;14.99;65.49;99337.72;5053049;27;98940;-72
2023/04/01 00:13:01;;;;;;;1.42;1.15;;;;;;;15.11;65.09;99341.28;5056659;27;96756;-71
2023/04/01 00:15:28;;;;;;;4.75;1.33;;;;;;;14.89;65.79;99341.22;5048748;27;98495;-71
2023/04/01 00:17:55;;;;;;;4.95;1.55;;;;;;;15.00;65.24;99346.56;5062772;27;99226;-71
2023/04/01 00:20:21;;;;;;;1.70;1.17;;;;;;;15.14;64.68;99341.06;5058875;27;98864;-72
2023/04/01 00:22:47;;;;;;;1.65;1.30;;;;;;;15.15;65.12;99340.94;5055975;27;98469;-72
2023/04/01 00:25:15;;;;;;;3.55;1.58;;;;;;;15.16;65.13;99344.44;5057835;27;98904;-71
2023/04/01 00:27:42;;;;;;;3.08;1.20;;;;;;;15.01;65.43;99343.78;5053575;27;98769;-71
2023/04/01 00:30:10;;;;;;;3.22;1.25;;;;;;;15.02;65.19;99340.19;5060852;27;99021;-72
2023/04/01 00:32:37;;;;;;;3.05;1.35;;;;;;;14.99;65.15;99342.22;5054300;27;97812;-72
2023/04/01 00:35:04;;;;;;;2.33;1.10;;;;;;;15.06;65.09;99338.97;5053191;27;99784;-73
2023/04/01 00:37:31;;;;;;;6.93;1.30;;;;;;;15.19;65.14;99338.88;5056017;27;98979;-71
2023/04/01 00:39:57;;;;;;;3.08;1.30;;;;;;;15.02;65.37;99339.31;5058858;27;98584;-72
2023/04/01 00:42:26;;;;;;;2.95;1.40;;;;;;;14.93;65.81;99337.34;5064224;27;96725;-72
2023/04/01 00:44:54;;;;;;;5.88;1.40;;;;;;;15.07;65.26;99337.16;5050389;27;97209;-71
2023/04/01 00:47:21;;;;;;;7.45;1.70;;;;;;;14.85;66.48;99342.38;5053951;27;98811;-71
2023/04/01 00:49:52;;;;;;;3.63;1.45;;;;;;;14.87;66.12;99333.34;5054955;27;97613;-71
2023/04/01 00:52:22;;;;;;;3.17;1.05;;;;;;;15.22;64.71;99343.13;5057269;27;99564;-71
2023/04/01 00:54:52;;;;;;;2.65;1.27;;;;;;;15.25;65.03;99340.22;5057473;27;97551;-71
2023/04/01 00:57:24;;;;;;;5.03;1.77;;;;;;;15.09;65.51;99340.56;5052795;27;101300;-70
2023/04/01 00:59:55;;;;;;;3.40;1.50;;;;;;;15.14;65.16;99341.06;5058715;27;98753;-71
2023/04/01 01:02:22;;;;;;;5.80;1.70;;;;;;;15.20;65.01;99340.59;5056181;27;96907;-71
2023/04/01 01:04:48;;;;;;;3.15;1.20;;;;;;;15.01;65.99;99342.94;5059080;27;98894;-71
2023/04/01 01:07:26;;;;;;;4.55;1.85;;;;;;;14.89;66.35;99341.22;5056522;27;98998;-72
2023/04/01 01:10:01;;;;;;;4.20;1.30;;;;;;;14.83;66.49;99349.66;5059694;27;102399;-71
2023/04/01 01:12:32;;;;;;;6.60;2.72;;;;;;;15.04;65.85;99340.88;5061956;27;97720;-72
2023/04/01 01:15:08;;;;;;;4.53;1.98;;;;;;;15.00;66.14;99342.09;5052549;27;97248;-74
2023/04/01 01:17:46;;;;;;;4.68;1.60;;;;;;;15.04;66.22;99345.34;5054176;27;99399;-71
2023/04/01 01:20:34;;;;;;;2.42;1.38;;;;;;;15.18;65.50;99342.50;5050383;27;100272;-72
2023/04/01 01:23:36;;;;;;;6.28;1.67;;;;;;;15.21;65.35;99344.94;5058939;27;97103;-71
2023/04/01 01:26:38;;;;;;;2.90;1.42;;;;;;;15.06;66.04;99344.28;5050600;27;98821;-73
2023/04/01 01:29:13;;;;;;;6.53;1.60;;;;;;;15.22;65.42;99343.13;5051992;27;98908;-72
2023/04/01 01:31:51;;;;;;;4.43;1.55;;;;;;;15.09;65.69;99340.56;5053178;27;99107;-72
2023/04/01 01:34:24;;;;;;;4.15;1.25;;;;;;;14.86;66.41;99352.91;5057082;27;97387;-71
2023/04/01 01:36:57;;;;;;;2.47;1.27;;;;;;;14.88;67.00;99348.34;5063491;27;97740;-72
2023/04/01 01:39:27;;;;;;;2.28;0.93;;;;;;;14.72;67.41;99348.63;5059305;27;99254;-72
2023/04/01 01:41:56;;;;;;;2.63;1.60;;;;;;;14.74;67.30;99349.38;5061734;27;99512;-71
2023/04/01 01:44:24;;;;;;;5.55;1.35;;;;;;;14.91;67.05;99356.06;5052647;27;96876;-72
2023/04/01 01:46:50;;;;;;;3.22;1.55;;;;;;;14.85;67.26;99351.22;5056218;27;96962;-73
2023/04/01 01:49:19;;;;;;;4.60;1.50;;;;;;;14.87;67.32;99351.13;5050247;27;101246;-73
2023/04/01 01:51:46;;;;;;;7.03;1.52;;;;;;;14.98;66.70;99357.31;5050592;27;98648;-73
2023/04/01 01:54:14;;;;;;;5.57;1.40;;;;;;;14.89;67.11;99355.38;5050793;27;97021;-73
2023/04/01 01:56:43;;;;;;;3.38;1.50;;;;;;;14.81;67.02;99359.56;5061788;27;96998;-72
2023/04/01 01:59:12;;;;;;;3.08;1.00;;;;;;;14.80;67.58;99363.16;5058507;27;99257;-72
2023/04/01 02:01:44;;;;;;;2.97;1.20;;;;;;;15.02;66.36;99363.25;5050116;27;97271;-71
2023/04/01 02:04:11;;;;;;;5.03;1.30;;;;;;;14.99;66.13;99359.00;5053676;27;97172;-71
2023/04/01 02:06:43;;;;;;;6.32;1.10;;;;;;;14.92;66.62;99367.56;5058620;27;96754;-71
2023/04/01 02:09:11;;;;;;;1.95;0.98;;;;;;;15.02;66.34;99368.59;5055419;27;97998;-70
2023/04/01 02:11:44;;;;;;;4.72;2.08;;;;;;;15.11;65.96;99357.22;5053726;27;99849;-71
2023/04/01 02:14:15;;;;;;;6.78;1.40;;;;;;;15.21;65.75;99360.91;5049577;27;97226;-71
2023/04/01 02:16:47;;;;;;;2.70;1.20;;;;;;;15.02;66.34;99363.25;5054788;27;98096;-71
2023/04/01 02:19:22;;;;;;;2.72;1.50;;;;;;;15.23;65.72;99356.28;5055471;27;98902;-71
2023/04/01 02:21:51;;;;;;;3.08;1.33;;;;;;;15.08;66.25;99362.81;5060562;27;98011;-72
2023/04/01 02:24:21;;;;;;;1.30;1.15;;;;;;;15.16;65.92;99363.06;5051404;27;96865;-71
2023/04/01 02:26:51;;;;;;;1.85;1.00;;;;;;;15.25;65.29;99359.69;5055142;27;97668;-72
2023/04/01 02:29:20;;;;;;;2.95;1.30;;;;;;;15.17;65.84;99362.09;5054278;27;97745;-72
2023/04/01 02:31:48;;;;;;;5.18;1.08;;;;;;;15.06;66.32;99370.03;5054603;27;99051;-72
2023/04/01 02:34:14;;;;;;;3.28;1.38;;;;;;;15.06;66.09;99362.91;5047559;27;97161;-73
2023/04/01 02:36:41;;;;;;;2.80;1.20;;;;;;;15.15;65.71;99370.22;5056927;27;97269;-72
2023/04/01 02:39:09;;;;;;;2.78;1.35;;;;;;;15.18;65.53;99371.78;5060206;27;99086;-72
2023/04/01 02:41:40;;;;;;;3.80;1.10;;;;;;;15.12;65.42;99373.09;5054402;27;99122;-71
2023/04/01 02:44:09;;;;;;;4.65;1.40;;;;;;;15.14;65.36;99367.66;5048909;27;97097;-72
2023/04/01 02:46:36;;;;;;;5.18;1.25;;;;;;;15.02;65.33;99376.56;5055867;27;97094;-71
2023/04/01 02:49:02;;;;;;;2.78;1.00;;;;;;;15.00;65.79;99376.69;5052771;27;98096;-72
2023/04/01 02:51:29;;;;;;;6.28;1.25;;;;;;;14.83;66.44;99374.44;5055832;27;99099;-72
2023/04/01 02:53:55;;;;;;;4.38;1.55;;;;;;;14.95;66.08;99378.00;5048471;27;97456;-71
2023/04/01 02:56:22;;;;;;;4.65;1.67;;;;;;;15.01;66.06;99377.53;5048436;27;96961;-72
2023/04/01 02:58:48;;;;;;;4.13;1.33;;;;;;;14.95;66.00;99378.00;5051869;27;98965;-72
2023/04/01 03:01:16;;;;;;;2.58;1.10;;;;;;;15.03;65.52;99384.41;5059748;27;97795;-72
2023/04/01 03:03:42;;;;;;;3.67;1.45;;;;;;;14.94;66.05;99382.47;5060695;27;97170;-72
2023/04/01 03:06:11;;;;;;;4.53;1.70;;;;;;;14.75;66.66;99379.47;5057996;27;97415;-72
2023/04/01 03:08:37;;;;;;;3.92;1.52;;;;;;;14.93;66.38;99387.88;5058298;27;99103;-72
2023/04/01 03:11:04;;;;;;;3.42;1.15;;;;;;;14.96;66.49;99390.34;5060543;27;99363;-72
2023/04/01 03:13:31;;;;;;;2.22;1.20;;;;;;;15.02;66.34;99395.19;5059231;27;98036;-72
2023/04/01 03:15:57;;;;;;;4.40;1.45;;;;;;;15.14;65.78;99388.94;5058427;27;98008;-72
2023/04/01 03:18:25;;;;;;;4.40;1.40;;;;;;;15.01;66.04;99383.69;5060811;27;98541;-72
2023/04/01 03:20:51;;;;;;;7.00;1.80;;;;;;;15.10;66.56;99384.78;5061129;27;99189;-72
2023/04/01 03:23:19;;;;;;;8.07;1.88;;;;;;;14.88;66.37;99388.25;5054019;27;96897;-72
2023/04/01 03:25:45;;;;;;;3.30;1.75;;;;;;;15.09;65.87;99391.97;5052533;27;97456;-72
2023/04/01 03:28:12;;;;;;;1.85;1.30;;;;;;;15.05;66.24;99394.94;5056254;27;97591;-72
2023/04/01 03:30:38;;;;;;;7.30;1.23;;;;;;;15.22;65.61;99385.72;5061197;27;98903;-72
2023/04/01 03:33:05;;;;;;;3.83;1.25;;;;;;;15.15;65.49;99393.31;5056193;27;97933;-72
2023/04/01 03:35:33;;;;;;;5.60;1.10;;;;;;;15.14;65.87;99396.91;5052271;27;97729;-72
2023/04/01 03:37:59;;;;;;;5.75;1.30;;;;;;;14.98;65.85;99394.56;5052781;27;99282;-72
2023/04/01 03:40:26;;;;;;;4.93;1.33;;;;;;;15.01;65.82;99397.00;5060859;27;98815;-72
2023/04/01 03:42:52;;;;;;;3.35;1.40;;;;;;;15.02;65.66;99400.50;5053677;27;96743;-71
2023/04/01 03:45:18;;;;;;;5.57;1.60;;;;;;;15.17;65.39;99404.66;5052399;27;97402;-71
2023/04/01 03:47:45;;;;;;;4.70;1.23;;;;;;;15.08;65.32;99405.38;5060088;27;97825;-72
2023/04/01 03:50:11;;;;;;;3.97;1.25;;;;;;;15.00;65.96;99405.09;5062371;27;98776;-72
2023/04/01 03:52:39;;;;;;;4.28;1.10;;;;;;;15.04;66.03;99412.72;5061872;27;96730;-72
2023/04/01 03:55:06;;;;;;;4.95;1.33;;;;;;;15.15;65.61;99412.78;5055389;27;97191;-71
2023/04/01 03:57:32;;;;;;;1.83;1.40;;;;;;;14.95;66.35;99413.41;5055731;27;98301;-71
2023/04/01 03:59:59;;;;;;;6.68;1.48;;;;;;;15.01;66.07;99414.78;5060742;27;99116;-71
2023/04/01 04:02:26;;;;;;;4.35;1.33;;;;;;;14.87;66.42;99421.09;5056627;27;97189;-74
2023/04/01 04:04:52;;;;;;;3.60;1.60;;;;;;;15.03;66.07;99415.50;5052470;27;96803;-73
2023/04/01 04:07:18;;;;;;;6.13;1.90;;;;;;;15.04;66.03;99420.69;5060093;27;100817;-73
2023/04/01 04:09:47;;;;;;;5.07;1.40;;;;;;;15.14;66.01;99421.72;5058410;27;98815;-72
2023/04/01 04:12:13;;;;;;;3.80;1.85;;;;;;;15.09;66.23;99426.53;5048633;27;97033;-72
2023/04/01 04:14:40;;;;;;;4.30;1.60;;;;;;;15.09;65.76;99428.34;5054056;27;96884;-72
2023/04/01 04:17:08;;;;;;;6.35;1.50;;;;;;;14.99;66.59;99427.31;5056289;27;99120;-73
2023/04/01 04:19:34;;;;;;;8.27;1.50;;;;;;;15.13;66.18;99427.16;5048770;27;98824;-72
2023/04/01 04:22:01;;;;;;;2.95;1.40;;;;;;;15.13;66.17;99429.81;5054006;27;97756;-72
2023/04/01 04:24:27;;;;;;;4.60;1.63;;;;;;;15.21;65.81;99432.75;5058379;27;97555;-72
2023/04/01 04:26:55;;;;;;;3.92;1.42;;;;;;;15.09;65.89;99439.00;5062664;27;98197;-71
2023/04/01 04:29:22;;;;;;;4.97;2.00;;;;;;;15.17;65.40;99439.25;5057148;27;99308;-72
2023/04/01 04:31:48;;;;;;;5.35;1.65;;;;;;;15.06;66.46;99434.75;5055046;27;97138;-72
2023/04/01 04:34:15;;;;;;;5.80;1.70;;;;;;;15.11;65.58;99432.56;5050666;27;97163;-72
2023/04/01 04:36:41;;;;;;;3.25;1.48;;;;;;;15.06;66.25;99436.53;5055776;27;98837;-71
2023/04/01 04:39:08;;;;;;;3.88;1.65;;;;;;;15.15;65.80;99443.84;5058875;27;97318;-71
2023/04/01 04:41:34;;;;;;;3.88;1.50;;;;;;;15.22;65.87;99445.09;5059069;27;96937;-71
2023/04/01 04:44:02;;;;;;;3.60;1.52;;;;;;;15.18;65.84;99440.09;5056529;27;97578;-71
2023/04/01 04:46:28;;;;;;;9.38;1.70;;;;;;;14.99;66.96;99448.59;5059187;27;97944;-71
2023/04/01 04:48:55;;;;;;;10.20;3.20;;;;;;;15.20;66.04;99454.16;5060384;27;97826;-71
2023/04/01 04:51:22;;;;;;;6.93;1.85;;;;;;;15.13;66.48;99451.09;5059558;27;97184;-71
2023/04/01 04:53:49;;;;;;;1.80;1.42;;;;;;;15.08;66.33;99448.78;5055612;27;97180;-71
2023/04/01 04:56:18;;;;;;;6.47;1.70;;;;;;;15.08;66.83;99453.25;5054375;27;98927;-71
2023/04/01 04:58:45;;;;;;;5.88;1.67;;;;;;;15.19;66.62;99452.44;5061651;27;98737;-71
2023/04/01 05:01:15;;;;;;;8.57;1.67;;;;;;;15.12;66.90;99455.56;5060319;27;97582;-71
2023/04/01 05:03:42;;;;;;;4.82;2.10;;;;;;;15.03;67.03;99453.56;5052103;27;97347;-72
2023/04/01 05:06:10;;;;;;;5.70;2.13;;;;;;;15.00;67.64;99455.63;5060081;27;98954;-71
2023/04/01 05:08:38;;;;;;;5.32;1.90;;;;;;;15.09;67.55;99450.50;5055726;27;98994;-70
2023/04/01 05:11:09;;;;;;;4.80;1.80;;;;;;;14.93;68.09;99457.03;5058368;27;98364;-73
2023/04/01 05:13:36;;;;;;;9.88;2.47;;;;;;;14.97;68.11;99469.13;5050061;27;98541;-71
2023/04/01 05:16:02;;;;;;;4.95;1.92;;;;;;;15.25;67.16;99463.47;5055783;27;97658;-73
2023/04/01 05:18:30;;;;;;;6.60;2.00;;;;;;;15.20;67.42;99465.63;5051991;27;99253;-71
2023/04/01 05:20:56;;;;;;;4.93;2.05;;;;;;;15.04;67.84;99467.72;5058120;27;97683;-71
2023/04/01 05:23:23;;;;;;;5.80;2.38;;;;;;;15.10;67.95;99460.13;5054515;27;97684;-70
2023/04/01 05:25:50;;;;;;;5.38;2.10;;;;;;;15.03;68.12;99466.88;5050369;27;98666;-70
2023/04/01 05:28:17;;;;;;;6.25;1.83;;;;;;;15.09;68.33;99466.44;5061559;27;98992;-71
2023/04/01 05:30:47;;;;;;;4.47;1.92;;;;;;;15.07;68.48;99472.84;5056485;27;96889;-71
2023/04/01 05:33:14;;;;;;;5.72;2.10;;;;;;;15.15;67.90;99471.31;5058219;27;97446;-71
2023/04/01 05:35:42;;;;;;;6.53;1.73;;;;;;;15.10;67.96;99476.09;5055773;27;98859;-71
2023/04/01 05:38:08;;;;;;;5.07;1.60;;;;;;;15.18;67.96;99477.34;5056657;27;99355;-72
2023/04/01 05:40:35;;;;;;;6.47;1.83;;;;;;;15.11;68.58;99479.63;5058358;27;96849;-73
2023/04/01 05:43:01;;;;;;;3.92;1.63;;;;;;;15.04;68.66;99481.88;5053414;27;96820;-73
2023/04/01 05:45:28;;;;;;;9.45;2.33;;;;;;;15.30;67.97;99476.44;5052435;27;99029;-73
2023/04/01 05:47:54;;;;;;;8.68;2.08;;;;;;;15.23;67.82;99483.19;5056343;27;99091;-71
2023/04/01 05:50:21;;;;;;;6.05;1.80;;;;;;;15.24;67.73;99485.72;5062284;27;97184;-71
2023/04/01 05:52:49;;;;;;;9.95;2.72;;;;;;;15.10;68.24;99488.56;5053209;27;97320;-71
2023/04/01 05:55:15;;;;;;;6.60;2.30;;;;;;;15.18;68.15;99483.53;5051338;27;100700;-72
2023/04/01 05:57:42;;;;;;;5.88;1.88;;;;;;;15.07;68.52;99487.00;5056720;27;98838;-72
2023/04/01 06:00:09;;;;;;;9.32;2.30;;;;;;;15.03;68.22;99492.66;5055996;27;99137;-72
2023/04/01 06:02:37;;;;;;;7.47;2.30;;;;;;;15.18;68.02;99495.97;5050976;27;97568;-71
2023/04/01 06:05:14;;;;;;;5.38;2.00;;;;;;;15.33;67.87;99494.84;5059669;27;99763;-72
2023/04/01 06:07:41;;;;;;;7.65;1.75;;;;;;;15.30;67.55;99490.59;5059938;27;100872;-72
2023/04/01 06:10:13;;;;;;;10.77;2.25;;;;;;;15.27;67.64;99505.94;5058579;27;98461;-70
2023/04/01 06:13:02;;;;;;;9.75;2.30;;;;;;;15.32;67.07;99503.78;5049634;27;97852;-72
2023/04/01 06:15:37;;;;;;;8.68;2.00;;;;;;;15.31;67.27;99512.72;5052149;27;98830;-71
2023/04/01 06:18:38;;;;;;;5.97;2.00;;;;;;;15.42;67.44;99508.34;5049556;27;99887;-71
2023/04/01 06:21:17;;;;;;;7.30;2.17;;;;;;;15.31;68.00;99510.91;5052085;27;98092;-71
2023/04/01 06:23:56;;;;;;;6.90;2.20;;;;;;;15.30;68.03;99519.00;5055269;27;97381;-72
2023/04/01 06:26:32;;;;;;;8.63;2.65;;;;;;;15.30;67.58;99519.84;5051046;27;100608;-73
2023/04/01 06:29:28;;;;;;;4.80;1.85;;;;;;;15.42;67.57;99518.13;5062551;27;97605;-71
2023/04/01 06:32:13;;;;;;;8.35;2.05;;;;;;;15.37;67.68;99523.78;5054519;27;96811;-73
2023/04/01 06:34:53;;;;;;;7.55;2.05;;;;;;;15.41;66.94;99527.91;5058079;27;97528;-71
2023/04/01 06:37:48;;;;;;;5.28;1.70;;;;;;;15.21;67.10;99528.53;5066439;27;99104;-71
2023/04/01 06:40:37;;;;;;;7.32;1.75;;;;;;;15.18;67.62;99523.44;5060618;27;100267;-70
2023/04/01 06:43:15;;;;;;;8.50;1.80;;;;;;;15.36;66.93;99535.38;5062120;27;99391;-71
2023/04/01 06:45:49;;;;;;;7.88;1.90;;;;;;;15.53;66.17;99535.03;5063444;27;97270;-70
2023/04/01 06:48:31;;;;;;;6.47;2.00;;;;;;;15.41;66.39;99532.41;5061033;27;98915;-72
2023/04/01 06:51:08;;;;;;;7.07;2.03;;;;;;;15.46;66.41;99533.75;5061008;27;99162;-71
2023/04/01 06:53:45;;;;;;;6.28;1.85;;;;;;;15.45;66.09;99542.69;5064038;27;97330;-72
2023/04/01 06:56:16;;;;;;;8.10;1.73;;;;;;;15.43;66.70;99538.44;5061591;27;98594;-71
2023/04/01 06:58:49;;;;;;;7.22;2.00;;;;;;;15.38;66.92;99535.28;5057481;27;98803;-71
2023/04/01 07:01:21;;;;;;;11.45;2.20;;;;;;;15.40;66.24;99541.34;5056711;27;98820;-72
2023/04/01 07:03:53;;;;;;;5.75;2.00;;;;;;;15.57;66.34;99540.09;5057098;27;96913;-71
2023/04/01 07:06:28;;;;;;;6.15;1.88;;;;;;;15.39;66.66;99544.97;5061122;27;97481;-71
2023/04/01 07:09:00;;;;;;;8.57;2.63;;;;;;;15.35;66.74;99547.00;5055584;27;100748;-71
2023/04/01 07:11:31;;;;;;;6.53;1.90;;;;;;;15.65;65.60;99543.91;5060633;27;99503;-72
2023/04/01 07:14:04;;;;;;;5.90;1.63;;;;;;;15.56;65.99;99549.91;5053040;27;96879;-71
2023/04/01 07:16:37;;;;;;;6.32;1.60;;;;;;;15.53;66.63;99540.34;5053344;27;97738;-73
2023/04/01 07:19:09;;;;;;;5.65;1.63;;;;;;;15.80;66.00;99547.22;5051180;27;98819;-72
2023/04/01 07:21:41;;;;;;;5.93;1.60;;;;;;;15.88;65.26;99550.16;5054698;27;97640;-71
2023/04/01 07:24:17;;;;;;;8.57;1.83;;;;;;;15.79;65.57;99550.84;5052432;27;97199;-73
2023/04/01 07:26:43;;;;;;;5.38;2.00;;;;;;;16.05;65.37;99554.19;5056611;27;97575;-71
2023/04/01 07:29:14;;;;;;;7.05;2.38;;;;;;;15.90;65.21;99551.72;5056432;27;99278;-72
2023/04/01 07:32:01;;;;;;;4.60;1.60;;;;;;;16.04;65.10;99565.81;5053047;27;99049;-72
2023/04/01 07:34:31;;;;;;;4.50;1.90;;;;;;;16.04;65.00;99555.16;5052489;27;98109;-72
2023/04/01 07:37:06;;;;;;;4.57;1.77;;;;;;;16.44;63.60;99559.09;5057836;27;98486;-71
2023/04/01 07:39:45;;;;;;;6.03;1.90;;;;;;;16.44;63.72;99560.91;5050682;27;101367;-72
2023/04/01 07:42:22;;;;;;;5.82;1.73;;;;;;;16.37;64.23;99565.03;5056460;27;98894;-72
2023/04/01 07:45:00;;;;;;;4.88;1.98;;;;;;;16.29;64.35;99569.13;5054344;27;97366;-71
2023/04/01 07:47:47;;;;;;;5.97;1.65;;;;;;;16.57;63.32;99565.16;5054648;27;97246;-71
2023/04/01 07:50:23;;;;;;;9.57;2.03;;;;;;;16.67;63.10;99568.00;5058588;27;101020;-73
2023/04/01 07:53:02;;;;;;;7.35;2.08;;;;;;;16.45;63.28;99565.28;5052388;27;98818;-73
2023/04/01 07:55:37;;;;;;;5.25;1.85;;;;;;;16.58;63.26;99566.88;5048986;27;98951;-73
2023/04/01 07:58:13;;;;;;;6.78;1.75;;;;;;;16.88;62.55;99574.28;5050244;27;99061;-71
2023/04/01 08:00:48;;;;;;;8.90;1.65;;;;;;;17.05;61.87;99576.47;5051462;27;99299;-72
2023/04/01 08:03:32;;;;;;;9.18;2.20;;;;;;;17.41;60.71;99577.09;5051093;27;97492;-72
2023/04/01 08:06:06;;;;;;;11.85;2.83;;;;;;;17.62;59.94;99593.22;5055022;27;99220;-72
2023/04/01 08:08:44;;;;;;;8.40;3.22;;;;;;;17.73;59.42;99587.81;5057320;27;99577;-75
2023/04/01 08:11:22;;;;;;;8.60;2.97;;;;;;;17.89;58.44;99585.56;5055991;27;99044;-72
2023/04/01 08:14:02;;;;;;;7.32;3.40;;;;;;;17.83;58.82;99592.28;5051796;27;98818;-72
2023/04/01 08:16:38;;;;;;;7.72;2.70;;;;;;;17.59;59.18;99588.91;5055467;27;98847;-71
2023/04/01 08:19:16;;;;;;;3.50;1.95;;;;;;;17.77;59.30;99595.47;5055122;27;97121;-71
2023/04/01 08:21:46;;;;;;;3.63;1.88;;;;;;;17.69;58.96;99589.06;5049959;27;100489;-72
2023/04/01 08:24:20;;;;;;;4.00;1.73;;;;;;;17.74;58.67;99589.50;5052235;27;101328;-72
2023/04/01 08:26:56;;;;;;;2.45;1.20;;;;;;;17.64;59.06;99593.94;5054747;27;99018;-72
2023/04/01 08:29:27;;;;;;;3.05;1.48;;;;;;;17.61;59.10;99600.38;5054102;27;98973;-71
2023/04/01 08:31:59;;;;;;;2.15;1.33;;;;;;;17.39;60.15;99600.41;5052870;27;99376;-73
2023/04/01 08:34:32;;;;;;;1.58;1.05;;;;;;;17.15;60.40;99608.56;5050836;27;98781;-74
2023/04/01 08:37:03;;;;;;;1.40;1.30;;;;;;;16.81;61.29;99605.06;5054259;27;97456;-73
2023/04/01 08:39:33;;;;;;;1.98;1.10;;;;;;;16.89;60.86;99613.31;5056371;27;97406;-72
2023/04/01 08:42:31;;;;;;;1.60;1.50;;;;;;;16.55;61.75;99624.91;5057647;27;98972;-73
2023/04/01 08:45:17;;;;;;;1.98;1.70;;;;;;;16.65;61.36;99615.28;5061431;27;101237;-72
2023/04/01 08:48:08;;;;;;;1.55;1.45;;;;;;;16.70;61.08;99618.41;5054048;27;96968;-73
2023/04/01 08:51:11;;;;;;;2.83;2.50;;;;;;;16.37;60.96;99626.34;5059629;27;97608;-73
2023/04/01 08:54:07;;;;;;;3.20;2.80;;;;;;;16.27;61.27;99627.06;5041816;27;97608;-73
2023/04/01 08:56:40;;;;;;;4.07;3.28;;;;;;;16.28;61.84;99628.72;5057042;27;99136;-73
2023/04/01 08:59:35;;;;;;;6.05;4.25;;;;;;;16.37;61.17;99627.19;5056076;27;97016;-73
2023/04/01 09:02:26;;;;;;;3.95;3.28;;;;;;;16.46;60.57;99634.50;5062440;27;97777;-72
2023/04/01 09:05:22;;;;;;;9.23;5.20;;;;;;;16.50;60.58;99627.09;5052710;27;97658;-73
2023/04/01 09:08:02;;;;;;;6.57;5.20;;;;;;;16.47;59.63;99635.34;5051654;27;99622;-71
2023/04/01 09:10:48;;;;;;;6.97;5.55;;;;;;;16.39;59.48;99630.59;5053131;27;97439;-72
2023/04/01 09:13:33;;;;;;;8.75;6.00;;;;;;;16.64;59.16;99634.91;5055740;27;97830;-73
2023/04/01 09:16:14;;;;;;;9.73;6.35;;;;;;;16.74;58.78;99633.19;5046944;27;101880;-73
2023/04/01 09:19:09;;;;;;;7.70;6.57;;;;;;;16.76;58.79;99638.44;5047718;27;98287;-73
2023/04/01 09:22:14;;;;;;;8.15;7.13;;;;;;;16.81;58.12;99646.91;5056733;27;98178;-73
2023/04/01 09:25:22;;;;;;;8.05;6.72;;;;;;;16.54;57.89;99649.91;5018449;27;97708;-72
2023/04/01 09:27:54;;;;;;;;;;;;;;;16.06;59.58;99654.47;5058071;27;99287;-72
2023/04/01 09:31:02;;;;;;;8.85;7.47;;;;;;;16.20;59.68;99656.97;5051579;27;99090;-72
2023/04/01 09:34:03;;;;;;;8.10;6.80;;;;;;;16.30;59.12;99661.47;5033973;27;97334;-72
2023/04/01 09:36:40;;;;;;;9.80;7.13;;;;;;;16.13;59.20;99667.22;5058937;27;97582;-72
2023/04/01 09:39:26;;;;;;;10.80;7.88;;;;;;;16.08;59.14;99673.88;5048691;27;98925;-74
2023/04/01 09:42:08;;;;;;;10.82;8.13;;;;;;;16.04;58.91;99675.91;5048458;27;98964;-72
2023/04/01 09:44:36;;;;;;;11.80;8.23;;;;;;;15.66;59.91;99675.22;5059298;27;97208;-71
2023/04/01 09:47:17;;;;;;;10.05;8.32;;;;;;;15.83;59.65;99681.00;5054095;27;97598;-72
2023/04/01 09:50:00;;;;;;;10.82;8.43;;;;;;;15.75;60.17;99685.22;5051035;27;98838;-73
2023/04/01 09:52:37;;;;;;;11.48;8.20;;;;;;;16.03;59.84;99684.84;5053513;27;98837;-72
2023/04/01 09:55:27;;;;;;;9.32;8.25;;;;;;;15.85;59.68;99686.22;5047733;27;97054;-74
2023/04/01 09:58:45;;;;;;;9.23;7.50;;;;;;;15.95;59.03;99695.22;5058303;27;97324;-74
2023/04/01 10:01:41;;;;;;;10.32;8.50;;;;;;;15.92;58.59;99690.13;5050455;27;99370;-74
2023/04/01 10:04:33;;;;;;;8.48;7.57;;;;;;;15.91;59.04;99693.75;5052951;27;99115;-73
2023/04/01 10:07:30;;;;;;;10.57;8.63;;;;;;;16.03;59.67;99700.84;5051218;27;97698;-72
2023/04/01 10:10:25;;;;;;;9.63;8.63;;;;;;;16.11;57.99;99703.78;5054454;27;96935;-73
2023/04/01 10:13:22;;;;;;;9.07;8.13;;;;;;;16.14;58.21;99705.41;5054093;27;99343;-74
2023/04/01 10:16:10;;;;;;;8.93;7.40;;;;;;;15.93;58.22;99707.84;5051709;27;99395;-73
2023/04/01 10:19:21;;;;;;;10.50;7.30;;;;;;;16.08;58.25;99712.00;5045742;27;97550;-73
2023/04/01 10:22:18;;;;;;;8.15;7.35;;;;;;;15.99;58.27;99718.03;4998779;28;97050;-74
2023/04/01 10:25:04;;;;;;;8.43;7.53;;;;;;;16.10;58.02;99712.75;5048681;27;98854;-74
2023/04/01 10:28:05;;;;;;;8.43;6.57;;;;;;;16.04;57.84;99710.53;5044839;27;99223;-74
2023/04/01 10:31:03;;;;;;;8.98;6.70;;;;;;;15.97;58.03;99714.63;5051371;27;97086;-76
2023/04/01 10:34:10;;;;;;;10.63;7.57;;;;;;;15.95;58.43;99716.53;5053031;27;96920;-76
2023/04/01 10:36:48;;;;;;;7.73;6.97;;;;;;;16.03;57.76;99723.97;5039560;27;97810;-75
2023/04/01 10:39:35;;;;;;;7.60;6.90;;;;;;;15.92;58.11;99725.63;5059176;27;96720;-76
2023/04/01 10:42:43;;;;;;;8.05;7.25;;;;;;;15.85;59.08;99728.84;5051422;27;96861;-76
2023/04/01 10:45:34;;;;;;;9.90;7.68;;;;;;;16.02;58.94;99728.44;5047859;27;96871;-75
2023/04/01 10:48:18;;;;;;;9.73;8.05;;;;;;;16.03;58.63;99729.31;5056556;27;97822;-76
2023/04/01 10:51:26;;;;;;;9.15;8.18;;;;;;;15.91;57.96;99736.38;5049290;27;98780;-76
2023/04/01 10:54:36;;;;;;;12.82;9.52;;;;;;;15.90;58.08;99735.53;5037884;27;99714;-75
2023/04/01 10:57:16;;;;;;;10.18;8.60;;;;;;;16.00;58.08;99742.88;5024096;27;98735;-77
2023/04/01 11:00:06;;;;;;;12.85;8.63;;;;;;;15.75;58.35;99741.16;5046478;27;97843;-75
2023/04/01 11:03:11;;;;;;;9.15;8.25;;;;;;;16.05;58.14;99736.22;5048752;27;98087;-76
2023/04/01 11:06:06;;;;;;;9.18;8.27;;;;;;;15.78;57.96;99740.91;5050441;27;97819;-76
2023/04/01 11:09:06;;;;;;;9.52;8.57;;;;;;;15.80;59.31;99747.00;5049510;27;98335;-75
2023/04/01 11:11:58;;;;;;;10.95;9.82;;;;;;;15.99;58.35;99747.34;5050792;27;98987;-76
2023/04/01 11:15:04;;;;;;;9.52;8.55;;;;;;;15.98;57.38;99753.63;5053230;27;97686;-77
2023/04/01 11:17:53;;;;;;;10.23;9.23;;;;;;;15.83;58.04;99757.41;4998477;27;100085;-76
2023/04/01 11:20:41;;;;;;;9.65;8.68;;;;;;;16.16;58.25;99752.28;5050192;27;97446;-76
2023/04/01 11:23:31;;;;;;;10.45;9.45;;;;;;;16.47;57.31;99756.19;5059959;27;97806;-75
2023/04/01 11:26:08;;;;;;;9.15;8.25;;;;;;;16.50;57.16;99755.94;5055983;27;99865;-76
2023/04/01 11:29:02;;;;;;;8.85;7.75;;;;;;;16.47;56.56;99758.84;5053729;27;97133;-76
2023/04/01 11:31:48;;;;;;;9.98;8.98;;;;;;;16.51;57.00;99762.97;5057752;27;97249;-76
2023/04/01 11:34:38;;;;;;;9.73;7.97;;;;;;;16.55;56.17;99767.09;5057078;27;100879;-73
2023/04/01 11:37:22;;;;;;;9.25;8.35;;;;;;;16.29;56.18;99770.88;5063123;27;99692;-74
2023/04/01 11:40:00;;;;;;;9.82;8.93;;;;;;;16.39;57.01;99766.56;5054972;27;97301;-77
2023/04/01 11:42:39;;;;;;;8.52;7.63;;;;;;;16.11;56.65;99774.91;5050434;27;96785;-76
2023/04/01 11:45:20;;;;;;;9.10;8.20;;;;;;;16.23;57.17;99779.31;5053127;27;101490;-76
2023/04/01 11:48:01;;;;;;;8.60;7.68;;;;;;;16.25;57.30;99783.59;5055052;27;100160;-75
2023/04/01 11:50:39;;;;;;;9.15;8.25;;;;;;;16.07;56.75;99790.28;5048349;27;96922;-75
2023/04/01 11:53:31;;;;;;;9.63;8.73;;;;;;;15.71;57.74;99792.91;5049344;27;96839;-76
2023/04/01 11:56:10;;;;;;;10.35;8.43;;;;;;;15.88;58.21;99792.56;5053442;27;97765;-75
2023/04/01 11:58:59;;;;;;;10.18;9.13;;;;;;;15.87;57.67;99804.19;5055574;27;98156;-76
2023/04/01 12:01:38;;;;;;;9.00;8.10;;;;;;;15.85;58.06;99803.44;5046977;27;97063;-77
2023/04/01 12:04:46;;;;;;;8.27;7.47;;;;;;;15.60;58.31;99807.00;5054822;27;97183;-76
2023/04/01 12:07:21;;;;;;;8.45;7.55;;;;;;;15.50;58.06;99814.75;5056421;27;98798;-75
2023/04/01 12:09:57;;;;;;;9.48;8.48;;;;;;;15.27;58.77;99814.66;5058725;27;97807;-76
2023/04/01 12:12:36;;;;;;;10.85;8.80;;;;;;;15.31;57.75;99824.13;5053472;27;97346;-76